createdAt,value
2019-03-02T00:02:09.742Z,23.25
2019-03-02T00:04:41.963Z,22.80
2019-03-02T00:07:13.738Z,23.73
2019-03-02T00:09:45.333Z,21.65
2019-03-02T00:12:16.609Z,23.45
2019-03-02T00:14:50.712Z,22.90
2019-03-02T00:17:21.157Z,23.02
2019-03-02T00:19:53.316Z,22.35
2019-03-02T00:22:24.910Z,22.20
2019-03-02T00:24:57.794Z,22.32
2019-03-02T00:27:29.189Z,22.65
2019-03-02T00:30:00.462Z,23.10
2019-03-02T00:32:32.037Z,23.22
2019-03-02T00:35:07.108Z,21.90
2019-03-02T00:37:37.210Z,21.80
2019-03-02T00:40:08.339Z,21.17
2019-03-02T00:42:40.376Z,21.25
2019-03-02T00:45:14.146Z,21.93
2019-03-02T00:47:44.992Z,22.60
2019-03-02T00:50:16.978Z,22.10
2019-03-02T00:52:48.671Z,20.88
2019-03-02T00:55:20.249Z,21.35
2019-03-02T00:57:53.683Z,22.05
2019-03-02T01:00:24.972Z,22.50
2019-03-02T01:02:56.578Z,23.15
2019-03-02T01:05:28.169Z,23.27
2019-03-02T01:08:00.010Z,23.00
2019-03-02T01:10:32.839Z,23.25
2019-03-02T01:13:04.132Z,25.05
2019-03-02T01:15:35.739Z,26.95
2019-03-02T01:18:07.526Z,27.20
2019-03-02T01:20:39.373Z,27.73
2019-03-02T01:23:11.360Z,28.60
2019-03-02T01:26:09.406Z,28.80
2019-03-02T01:29:09.327Z,29.72
2019-03-02T01:31:41.738Z,29.00
2019-03-02T01:34:13.102Z,30.52
2019-03-02T01:36:44.889Z,31.27
2019-03-02T01:39:16.219Z,30.37
2019-03-02T01:41:51.031Z,29.42
2019-03-02T01:44:21.526Z,29.95
2019-03-02T01:46:53.461Z,28.32
2019-03-02T01:49:25.053Z,27.48
2019-03-02T01:51:58.207Z,27.93
2019-03-02T01:54:29.647Z,28.50
2019-03-02T01:57:00.655Z,29.77
2019-03-02T01:59:32.200Z,29.20
2019-03-02T02:02:03.451Z,33.03
2019-03-02T02:04:35.057Z,28.57
2019-03-02T02:07:05.781Z,28.52
2019-03-02T02:09:40.624Z,27.93
2019-03-02T02:12:10.453Z,28.75
2019-03-02T02:14:41.793Z,28.80
2019-03-02T02:17:14.413Z,32.28
2019-03-02T02:19:46.079Z,29.37
2019-03-02T02:22:17.086Z,29.87
2019-03-02T02:24:48.676Z,30.00
2019-03-02T02:27:22.547Z,29.18
2019-03-02T02:29:53.359Z,29.45
2019-03-02T02:32:25.742Z,29.35
2019-03-02T02:35:01.107Z,27.77
2019-03-02T02:37:32.438Z,28.87
2019-03-02T02:40:07.989Z,27.70
2019-03-02T02:42:39.047Z,28.73
2019-03-02T02:45:11.035Z,27.55
2019-03-02T02:47:50.327Z,28.20
2019-03-02T02:50:17.355Z,27.62
2019-03-02T02:52:48.585Z,29.40
2019-03-02T02:55:19.860Z,29.40
2019-03-02T02:57:51.135Z,30.52
2019-03-02T03:00:25.164Z,28.90
2019-03-02T03:02:56.459Z,30.57
2019-03-02T03:05:28.447Z,28.70
2019-03-02T03:08:00.042Z,28.95
2019-03-02T03:10:36.105Z,29.40
2019-03-02T03:13:07.425Z,28.35
2019-03-02T03:15:46.625Z,27.65
2019-03-02T03:18:18.520Z,30.43
2019-03-02T03:20:50.756Z,29.00
2019-03-02T03:23:24.912Z,30.43
2019-03-02T03:25:56.996Z,30.08
2019-03-02T03:28:30.519Z,29.48
2019-03-02T03:31:01.904Z,29.67
2019-03-02T03:33:41.975Z,30.12
2019-03-02T03:36:06.767Z,30.57
2019-03-02T03:38:38.313Z,31.00
2019-03-02T03:41:09.563Z,31.82
2019-03-02T03:43:42.606Z,31.25
2019-03-02T03:46:17.770Z,31.95
2019-03-02T03:48:51.353Z,32.75
2019-03-02T03:51:19.290Z,35.25
2019-03-02T03:53:50.686Z,34.05
2019-03-02T03:56:22.008Z,35.17
2019-03-02T03:58:53.887Z,37.10
2019-03-02T04:01:25.155Z,35.05
2019-03-02T04:03:56.480Z,35.52
2019-03-02T04:06:29.204Z,34.60
2019-03-02T04:09:03.394Z,35.43
2019-03-02T04:11:37.878Z,33.73
2019-03-02T04:14:07.671Z,33.90
2019-03-02T04:16:38.917Z,34.55
2019-03-02T04:19:14.774Z,35.40
2019-03-02T04:21:48.925Z,34.92
2019-03-02T04:24:20.292Z,32.95
2019-03-02T04:26:52.140Z,34.15
2019-03-02T04:29:23.681Z,33.15
2019-03-02T04:31:54.477Z,33.02
2019-03-02T04:34:25.789Z,33.18
2019-03-02T04:36:57.091Z,34.78
2019-03-02T04:39:28.970Z,31.97
2019-03-02T04:41:59.901Z,34.63
2019-03-02T04:44:31.472Z,32.65
2019-03-02T04:47:03.382Z,35.00
2019-03-02T04:49:34.953Z,32.63
2019-03-02T04:52:06.834Z,32.93
2019-03-02T04:54:38.707Z,33.75
2019-03-02T04:57:09.526Z,34.67
2019-03-02T04:59:40.789Z,35.95
2019-03-02T05:02:12.172Z,34.40
2019-03-02T05:04:43.742Z,33.88
2019-03-02T05:07:14.940Z,33.67
2019-03-02T05:09:48.593Z,34.65
2019-03-02T05:12:18.958Z,35.63
2019-03-02T05:14:50.213Z,37.20
2019-03-02T05:17:22.108Z,37.08
2019-03-02T05:19:53.934Z,37.17
2019-03-02T05:22:25.942Z,37.93
2019-03-02T05:24:57.782Z,34.18
2019-03-02T05:27:32.021Z,35.48
2019-03-02T05:30:02.691Z,36.30
2019-03-02T05:32:33.699Z,37.48
2019-03-02T05:35:05.303Z,36.15
2019-03-02T05:37:39.105Z,36.35
2019-03-02T05:40:10.593Z,36.13
2019-03-02T05:42:42.181Z,36.42
2019-03-02T05:45:13.024Z,35.95
2019-03-02T05:47:44.890Z,37.10
2019-03-02T05:50:15.694Z,35.68
2019-03-02T05:52:47.007Z,36.40
2019-03-02T05:55:18.220Z,37.75
2019-03-02T05:57:50.722Z,35.08
2019-03-02T06:00:22.986Z,36.83
2019-03-02T06:02:54.320Z,36.60
2019-03-02T06:05:25.611Z,36.53
2019-03-02T06:07:59.771Z,35.50
2019-03-02T06:10:31.136Z,36.68
2019-03-02T06:13:02.975Z,38.63
2019-03-02T06:15:34.845Z,37.90
2019-03-02T06:18:07.681Z,40.10
2019-03-02T06:20:40.131Z,39.55
2019-03-02T06:23:11.131Z,38.23
2019-03-02T06:25:42.981Z,38.17
2019-03-02T06:28:14.200Z,38.67
2019-03-02T06:30:45.177Z,38.58
2019-03-02T06:33:44.038Z,38.75
2019-03-02T06:36:14.365Z,35.43
2019-03-02T06:38:45.685Z,36.15
2019-03-02T06:41:17.038Z,36.20
2019-03-02T06:43:48.293Z,37.78
2019-03-02T06:46:23.268Z,36.00
2019-03-02T06:48:52.604Z,36.85
2019-03-02T06:51:23.865Z,36.93
2019-03-02T06:53:55.992Z,38.60
2019-03-02T06:56:27.299Z,38.17
2019-03-02T06:59:00.666Z,38.15
2019-03-02T07:01:32.335Z,37.65
2019-03-02T07:04:03.397Z,41.53
2019-03-02T07:06:34.558Z,37.95
2019-03-02T07:09:09.641Z,37.28
2019-03-02T07:11:40.976Z,38.63
2019-03-02T07:14:11.968Z,35.23
2019-03-02T07:16:42.746Z,38.38
2019-03-02T07:19:29.846Z,43.95
2019-03-02T07:22:01.717Z,42.40
2019-03-02T07:24:32.992Z,35.23
2019-03-02T07:27:04.983Z,36.90
2019-03-02T07:29:36.377Z,36.08
2019-03-02T07:32:08.061Z,34.45
2019-03-02T07:34:40.690Z,34.40
2019-03-02T07:37:13.222Z,36.80
2019-03-02T07:39:44.224Z,34.60
2019-03-02T07:42:15.916Z,33.50
2019-03-02T07:44:47.724Z,32.85
2019-03-02T07:47:20.704Z,33.53
2019-03-02T07:49:52.267Z,39.90
2019-03-02T07:52:23.675Z,33.42
2019-03-02T07:54:58.347Z,30.70
2019-03-02T07:57:28.784Z,36.53
2019-03-02T08:00:02.069Z,44.67
2019-03-02T08:02:32.599Z,32.00
2019-03-02T08:05:04.089Z,39.45
2019-03-02T08:07:38.119Z,32.67
2019-03-02T08:10:10.591Z,31.65
2019-03-02T08:12:42.238Z,31.73
2019-03-02T08:15:20.121Z,33.75
2019-03-02T08:17:51.537Z,27.62
2019-03-02T08:20:24.370Z,28.05
2019-03-02T08:22:57.074Z,28.92
2019-03-02T08:25:28.157Z,28.07
2019-03-02T08:27:59.878Z,26.73
2019-03-02T08:30:33.498Z,27.58
2019-03-02T08:33:04.158Z,26.73
2019-03-02T08:35:35.510Z,26.48
2019-03-02T08:38:06.433Z,28.27
2019-03-02T08:40:39.910Z,28.20
2019-03-02T08:43:12.953Z,26.25
2019-03-02T08:45:45.453Z,25.90
2019-03-02T08:48:17.015Z,26.40
2019-03-02T08:50:49.807Z,28.32
2019-03-02T08:53:21.779Z,26.60
2019-03-02T08:55:52.985Z,24.67
2019-03-02T08:58:24.663Z,25.00
2019-03-02T09:00:56.459Z,24.77
2019-03-02T09:03:30.223Z,26.48
2019-03-02T09:06:11.098Z,25.75
2019-03-02T09:08:35.150Z,24.52
2019-03-02T09:11:06.508Z,25.40
2019-03-02T09:13:38.078Z,25.50
2019-03-02T09:16:09.124Z,23.55
2019-03-02T09:18:45.443Z,25.32
2019-03-02T09:21:14.484Z,24.50
2019-03-02T09:23:46.070Z,24.95
2019-03-02T09:26:17.793Z,24.63
2019-03-02T09:28:51.979Z,25.20
2019-03-02T09:31:26.154Z,25.35
2019-03-02T09:33:55.036Z,24.67
2019-03-02T09:36:27.772Z,26.43
2019-03-02T09:38:59.580Z,24.30
2019-03-02T09:41:31.160Z,23.62
2019-03-02T09:44:02.430Z,25.43
2019-03-02T09:46:34.410Z,24.50
2019-03-02T09:49:30.067Z,25.05
2019-03-02T09:52:01.562Z,27.13
2019-03-02T09:54:33.959Z,24.72
2019-03-02T09:57:05.472Z,25.08
2019-03-02T09:59:37.166Z,22.42
2019-03-02T10:02:10.517Z,23.87
2019-03-02T10:04:41.765Z,21.80
2019-03-02T10:07:13.048Z,22.63
2019-03-02T10:09:44.073Z,22.30
2019-03-02T10:12:15.958Z,23.10
2019-03-02T10:14:47.042Z,22.90
2019-03-02T10:17:18.375Z,22.50
2019-03-02T10:19:49.971Z,23.63
2019-03-02T10:22:23.391Z,24.17
2019-03-02T10:24:55.023Z,23.07
2019-03-02T10:27:26.703Z,21.23
2019-03-02T10:29:58.842Z,23.20
2019-03-02T10:32:30.722Z,22.77
2019-03-02T10:35:02.304Z,22.40
2019-03-02T10:37:33.666Z,21.50
2019-03-02T10:40:08.842Z,21.90
2019-03-02T10:42:39.510Z,61.00
2019-03-02T10:45:14.614Z,32.07
2019-03-02T10:47:46.195Z,25.30
2019-03-02T10:50:23.418Z,24.27
2019-03-02T10:52:53.891Z,21.47
2019-03-02T10:55:25.351Z,23.03
2019-03-02T10:57:59.112Z,60.90
2019-03-02T11:00:31.421Z,37.10
2019-03-02T11:03:03.267Z,22.17
2019-03-02T11:05:52.999Z,21.50
2019-03-02T11:08:44.314Z,23.20
2019-03-02T11:11:39.815Z,20.60
2019-03-02T11:14:41.671Z,21.10
2019-03-02T11:17:26.457Z,21.40
2019-03-02T11:20:24.346Z,20.87
2019-03-02T11:23:29.906Z,20.80
2019-03-02T11:26:15.270Z,20.30
2019-03-02T11:29:08.259Z,18.63
2019-03-02T11:31:57.326Z,17.77
2019-03-02T11:34:59.734Z,18.17
2019-03-02T11:37:40.784Z,17.53
2019-03-02T11:40:32.886Z,19.03
2019-03-02T11:43:19.982Z,18.40
2019-03-02T11:46:03.365Z,21.40
2019-03-02T11:48:56.901Z,18.73
2019-03-02T11:51:39.606Z,18.90
2019-03-02T11:54:47.897Z,18.20
2019-03-02T11:57:43.916Z,19.53
2019-03-02T12:00:37.672Z,12.13
2019-03-02T12:03:17.108Z,13.03
2019-03-02T12:06:07.177Z,14.40
2019-03-02T12:08:58.211Z,16.73
2019-03-02T12:11:48.553Z,17.30
2019-03-02T12:14:42.947Z,17.40
2019-03-02T12:17:31.549Z,17.60
2019-03-02T12:20:15.050Z,17.20
2019-03-02T12:23:03.724Z,16.80
2019-03-02T12:26:07.835Z,17.50
2019-03-02T12:28:48.785Z,16.67
2019-03-02T12:31:47.475Z,17.80
2019-03-02T12:34:36.126Z,17.37
2019-03-02T12:37:32.933Z,17.00
2019-03-02T12:40:27.151Z,17.10
2019-03-02T12:43:33.151Z,16.30
2019-03-02T12:46:22.262Z,15.30
2019-03-02T12:49:15.314Z,15.33
2019-03-02T12:52:04.911Z,15.10
2019-03-02T12:54:43.346Z,13.90
2019-03-02T12:57:33.075Z,15.00
2019-03-02T13:00:26.537Z,17.30
2019-03-02T13:03:05.796Z,14.10
2019-03-02T13:05:57.575Z,15.07
2019-03-02T13:08:46.091Z,14.73
2019-03-02T13:11:45.085Z,13.53
2019-03-02T13:14:44.174Z,14.67
2019-03-02T13:17:41.760Z,13.87
2019-03-02T13:20:31.202Z,15.77
2019-03-02T13:23:13.469Z,13.30
2019-03-02T13:25:59.150Z,13.90
2019-03-02T13:29:07.672Z,12.83
2019-03-02T13:32:00.921Z,11.50
2019-03-02T13:34:51.405Z,11.40
2019-03-02T13:37:47.791Z,11.80
2019-03-02T13:40:43.717Z,11.00
2019-03-02T13:43:45.934Z,11.27
2019-03-02T13:46:26.563Z,11.50
2019-03-02T13:49:16.723Z,10.30
2019-03-02T13:52:07.459Z,10.93
2019-03-02T13:55:03.476Z,10.13
2019-03-02T13:57:43.065Z,10.43
2019-03-02T14:00:30.631Z,10.87
2019-03-02T14:03:18.764Z,11.57
2019-03-02T14:06:08.984Z,14.73
2019-03-02T14:08:58.914Z,11.10
2019-03-02T14:11:49.095Z,11.70
2019-03-02T14:14:48.538Z,11.57
2019-03-02T14:17:29.266Z,12.37
2019-03-02T14:20:20.682Z,12.60
2019-03-02T14:23:04.166Z,12.27
2019-03-02T14:25:56.102Z,16.27
2019-03-02T14:28:38.314Z,11.23
2019-03-02T14:31:24.213Z,11.70
2019-03-02T14:34:15.673Z,10.53
2019-03-02T14:37:00.819Z,9.70
2019-03-02T14:39:44.342Z,12.30
2019-03-02T14:42:34.165Z,9.30
2019-03-02T14:45:16.423Z,10.77
2019-03-02T14:48:05.115Z,11.70
2019-03-02T14:50:50.461Z,12.87
2019-03-02T14:53:53.060Z,11.77
2019-03-02T14:56:48.357Z,10.77
2019-03-02T14:59:50.183Z,11.20
2019-03-02T15:02:38.522Z,10.70
2019-03-02T15:05:20.262Z,11.10
2019-03-02T15:08:03.200Z,11.73
2019-03-02T15:10:56.307Z,11.10
2019-03-02T15:13:49.380Z,10.20
2019-03-02T15:16:32.354Z,10.53
2019-03-02T15:19:16.730Z,9.07
2019-03-02T15:22:06.223Z,8.70
2019-03-02T15:24:56.726Z,7.20
2019-03-02T15:27:46.615Z,5.93
2019-03-02T15:30:36.787Z,7.63
2019-03-02T15:33:20.260Z,8.00
2019-03-02T15:36:13.511Z,9.97
2019-03-02T15:39:06.461Z,9.23
2019-03-02T15:41:59.117Z,14.00
2019-03-02T15:44:47.495Z,8.60
2019-03-02T15:47:24.139Z,7.73
2019-03-02T15:50:07.363Z,8.93
2019-03-02T15:52:53.581Z,8.37
2019-03-02T15:55:49.621Z,7.50
2019-03-02T15:58:37.979Z,7.83
2019-03-02T16:01:31.633Z,8.50
2019-03-02T16:04:22.220Z,8.30
2019-03-02T16:07:05.386Z,6.80
2019-03-02T16:10:05.698Z,5.50
2019-03-02T16:12:49.344Z,5.33
2019-03-02T16:15:38.548Z,5.60
2019-03-02T16:18:34.775Z,5.17
2019-03-02T16:21:28.604Z,5.60
2019-03-02T16:24:23.844Z,5.60
2019-03-02T16:27:15.802Z,5.37
2019-03-02T16:30:03.410Z,5.20
2019-03-02T16:32:55.388Z,5.17
2019-03-02T16:35:43.773Z,4.50
2019-03-02T16:38:39.770Z,4.87
2019-03-02T16:41:36.391Z,4.27
2019-03-02T16:44:25.396Z,4.20
2019-03-02T16:47:14.984Z,3.80
2019-03-02T16:50:05.585Z,4.60
2019-03-02T16:52:51.612Z,3.80
2019-03-02T16:55:42.030Z,3.57
2019-03-02T16:58:34.021Z,4.30
2019-03-02T17:01:24.824Z,6.00
2019-03-02T17:04:07.246Z,4.63
2019-03-02T17:06:55.816Z,4.03
2019-03-02T17:09:32.687Z,4.13
2019-03-02T17:12:22.897Z,4.10
2019-03-02T17:15:31.713Z,3.67
2019-03-02T17:18:21.798Z,4.53
2019-03-02T17:21:07.396Z,4.07
2019-03-02T17:24:03.543Z,4.30
2019-03-02T17:26:46.022Z,9.97
2019-03-02T17:29:37.419Z,11.50
2019-03-02T17:32:26.242Z,5.60
2019-03-02T17:35:32.790Z,4.07
2019-03-02T17:38:38.719Z,4.43
2019-03-02T17:41:29.134Z,3.90
2019-03-02T17:44:34.703Z,3.70
2019-03-02T17:47:26.575Z,5.13
2019-03-02T17:50:26.702Z,13.13
2019-03-02T17:53:07.377Z,6.87
2019-03-02T17:55:48.000Z,3.33
2019-03-02T17:58:33.942Z,3.50
2019-03-02T18:01:20.793Z,3.00
2019-03-02T18:04:07.657Z,4.13
2019-03-02T18:07:01.180Z,4.57
2019-03-02T18:10:01.180Z,4.00
2019-03-02T18:12:46.083Z,4.23
2019-03-02T18:15:45.679Z,4.10
2019-03-02T18:18:17.017Z,3.40
2019-03-02T18:20:48.195Z,5.00
2019-03-02T18:23:22.544Z,3.50
2019-03-02T18:25:53.557Z,3.93
2019-03-02T18:28:25.338Z,3.30
2019-03-02T18:30:57.822Z,4.97
2019-03-02T18:33:36.359Z,4.17
2019-03-02T18:36:09.866Z,3.37
2019-03-02T18:38:44.455Z,3.83
2019-03-02T18:41:16.695Z,3.80
2019-03-02T18:43:49.247Z,4.10
2019-03-02T18:46:21.770Z,3.47
2019-03-02T18:49:00.121Z,4.43
2019-03-02T18:51:59.115Z,5.10
2019-03-02T18:54:30.823Z,5.50
2019-03-02T18:57:01.592Z,5.57
2019-03-02T18:59:33.415Z,3.40
2019-03-02T19:02:11.553Z,2.40
2019-03-02T19:04:38.618Z,3.50
2019-03-02T19:07:12.205Z,3.40
2019-03-02T19:09:45.492Z,4.23
2019-03-02T19:12:16.528Z,2.97
2019-03-02T19:14:53.708Z,3.80
2019-03-02T19:17:25.250Z,4.47
2019-03-02T19:19:57.022Z,4.60
2019-03-02T19:22:28.707Z,4.60
2019-03-02T19:25:01.064Z,3.60
2019-03-02T19:27:34.386Z,4.73
2019-03-02T19:30:07.022Z,4.53
2019-03-02T19:32:39.188Z,4.47
2019-03-02T19:35:10.573Z,4.47
2019-03-02T19:37:43.394Z,3.57
2019-03-02T19:40:19.445Z,3.80
2019-03-02T19:42:51.024Z,3.75
2019-03-02T19:45:22.534Z,3.60
2019-03-02T19:47:54.371Z,3.12
2019-03-02T19:50:26.479Z,3.70
2019-03-02T19:52:59.273Z,3.67
2019-03-02T19:55:31.024Z,4.23
2019-03-02T19:58:02.812Z,4.95
2019-03-02T20:00:33.463Z,4.13
2019-03-02T20:03:05.264Z,4.30
2019-03-02T20:05:37.757Z,3.87
2019-03-02T20:08:10.143Z,2.97
2019-03-02T20:10:43.671Z,3.40
2019-03-02T20:13:16.648Z,3.20
2019-03-02T20:15:48.465Z,3.40
2019-03-02T20:18:19.462Z,3.05
2019-03-02T20:20:51.220Z,2.90
2019-03-02T20:23:23.886Z,3.20
2019-03-02T20:25:56.988Z,6.60
2019-03-02T20:28:29.943Z,2.80
2019-03-02T20:31:01.419Z,2.47
2019-03-02T20:33:35.514Z,2.47
2019-03-02T20:36:09.169Z,3.07
2019-03-02T20:38:41.005Z,3.17
2019-03-02T20:41:14.479Z,8.60
2019-03-02T20:43:47.237Z,3.70
2019-03-02T20:46:19.491Z,2.33
2019-03-02T20:48:51.461Z,2.90
2019-03-02T20:51:23.435Z,3.00
2019-03-02T20:53:55.713Z,3.03
2019-03-02T20:56:27.358Z,3.25
2019-03-02T20:58:59.352Z,3.10
2019-03-02T21:01:30.699Z,2.95
2019-03-02T21:04:02.549Z,2.50
2019-03-02T21:06:34.494Z,2.60
2019-03-02T21:09:07.807Z,3.10
2019-03-02T21:11:39.215Z,2.42
2019-03-02T21:14:10.811Z,2.90
2019-03-02T21:16:42.580Z,2.70
2019-03-02T21:19:13.961Z,2.75
2019-03-02T21:21:45.998Z,2.80
2019-03-02T21:24:18.059Z,2.83
2019-03-02T21:26:49.087Z,2.47
2019-03-02T21:29:21.593Z,2.53
2019-03-02T21:31:52.910Z,2.50
2019-03-02T21:34:24.869Z,2.47
2019-03-02T21:36:56.131Z,2.50
2019-03-02T21:39:27.196Z,2.20
2019-03-02T21:41:58.190Z,2.60
2019-03-02T21:44:29.526Z,3.10
2019-03-02T21:47:00.844Z,4.22
2019-03-02T21:49:32.155Z,3.67
2019-03-02T21:52:03.486Z,4.20
2019-03-02T21:54:35.483Z,5.03
2019-03-02T21:57:07.119Z,3.70
2019-03-02T21:59:38.742Z,3.20
2019-03-02T22:02:09.742Z,3.90
2019-03-02T22:04:41.049Z,6.10
2019-03-02T22:07:12.661Z,4.40
2019-03-02T22:09:44.231Z,7.92
2019-03-02T22:12:15.957Z,4.45
2019-03-02T22:14:47.672Z,6.93
2019-03-02T22:17:18.712Z,5.97
2019-03-02T22:19:49.780Z,4.30
2019-03-02T22:22:21.415Z,5.00
2019-03-02T22:24:52.702Z,6.42
2019-03-02T22:27:24.049Z,5.85
2019-03-02T22:29:55.055Z,6.43
2019-03-02T22:32:26.611Z,5.45
2019-03-02T22:34:57.785Z,6.70
2019-03-02T22:37:29.016Z,5.55
2019-03-02T22:40:00.599Z,6.67
2019-03-02T22:42:32.819Z,6.67
2019-03-02T22:45:04.433Z,7.03
2019-03-02T22:47:35.776Z,4.62
2019-03-02T22:50:10.745Z,4.35
2019-03-02T22:52:41.979Z,3.60
2019-03-02T22:55:15.869Z,4.23
2019-03-02T22:57:48.624Z,4.65
2019-03-02T23:01:21.036Z,4.60
2019-03-02T23:03:52.539Z,4.45
2019-03-02T23:06:23.688Z,3.43
2019-03-02T23:08:57.610Z,3.85
2019-03-02T23:11:28.458Z,4.70
2019-03-02T23:13:59.754Z,4.20
2019-03-02T23:16:31.419Z,3.22
2019-03-02T23:19:02.679Z,3.10
2019-03-02T23:21:34.075Z,4.30
2019-03-02T23:24:05.434Z,3.65
2019-03-02T23:26:36.740Z,3.80
2019-03-02T23:29:08.151Z,4.70
2019-03-02T23:31:39.404Z,3.25
2019-03-02T23:34:10.472Z,3.92
2019-03-02T23:36:41.895Z,4.20
2019-03-02T23:39:13.500Z,3.42
2019-03-02T23:41:45.433Z,4.15
2019-03-02T23:44:17.377Z,3.65
2019-03-02T23:46:48.646Z,3.60
2019-03-02T23:49:20.337Z,8.70
2019-03-02T23:51:51.635Z,5.03
2019-03-02T23:54:22.950Z,6.10
2019-03-02T23:56:54.149Z,3.65
2019-03-02T23:59:25.448Z,3.62
